createdAt,value
2022-12-03T00:17:27.730Z,1.53
2022-12-03T00:37:27.715Z,1.53
2022-12-03T00:57:27.643Z,1.54
2022-12-03T01:17:27.633Z,1.56
2022-12-03T01:37:27.607Z,1.56
2022-12-03T01:57:27.585Z,1.54
2022-12-03T02:17:27.559Z,1.53
2022-12-03T02:37:27.555Z,1.5
2022-12-03T02:57:27.508Z,1.44
2022-12-03T03:17:27.496Z,1.42
2022-12-03T03:37:27.461Z,1.41
2022-12-03T03:57:27.454Z,1.33
2022-12-03T04:17:27.420Z,1.27
2022-12-03T04:37:27.395Z,1.18
2022-12-03T04:57:27.379Z,1.16
2022-12-03T05:17:27.352Z,1.12
2022-12-03T05:37:27.320Z,1.08
2022-12-03T05:57:27.292Z,1.02
2022-12-03T06:17:27.287Z,0.91
2022-12-03T06:37:27.261Z,0.83
2022-12-03T06:57:27.233Z,0.72
2022-12-03T07:17:27.227Z,0.7
2022-12-03T08:17:27.149Z,0.95
2022-12-03T08:37:27.143Z,0.93
2022-12-03T08:57:27.110Z,0.87
2022-12-03T09:17:27.102Z,0.85
2022-12-03T09:37:27.072Z,0.8
2022-12-03T09:57:27.057Z,0.87
2022-12-03T10:17:27.019Z,0.98
2022-12-03T10:37:27.026Z,1.09
2022-12-03T10:57:26.964Z,1.13
2022-12-03T11:17:26.960Z,1.17
2022-12-03T11:37:26.973Z,1.3
2022-12-03T11:57:26.908Z,1.33
2022-12-03T12:17:26.875Z,1.39
2022-12-03T12:37:26.856Z,1.46
2022-12-03T12:57:26.825Z,1.46
2022-12-03T13:17:26.820Z,1.47
2022-12-03T13:37:26.792Z,1.42
2022-12-03T13:57:26.777Z,1.39
2022-12-03T14:17:26.746Z,1.19
2022-12-03T14:37:26.720Z,1.06
2022-12-03T14:57:26.697Z,1
2022-12-03T15:17:31.467Z,0.96
2022-12-03T15:37:26.655Z,0.84
2022-12-03T15:57:26.630Z,0.8
2022-12-03T16:17:26.611Z,0.73
2022-12-03T16:37:26.579Z,0.72
2022-12-03T16:57:31.920Z,0.68
2022-12-03T17:17:26.575Z,0.66
2022-12-03T17:37:26.526Z,0.61
2022-12-03T17:57:26.497Z,0.58
2022-12-03T18:17:26.467Z,0.52
2022-12-03T18:37:26.459Z,0.5
2022-12-03T18:57:26.450Z,0.49
2022-12-03T19:17:26.436Z,0.45
2022-12-03T19:37:26.408Z,0.47
2022-12-03T19:57:26.371Z,0.46
2022-12-03T20:17:26.345Z,0.43
2022-12-03T20:37:26.336Z,0.4
2022-12-03T21:17:26.323Z,0.36
2022-12-03T21:37:26.251Z,0.37
2022-12-03T21:57:26.239Z,0.36
2022-12-03T22:17:26.209Z,0.39
2022-12-03T23:37:26.131Z,0.44
